createdAt,value
2022-11-25T00:00:33.429Z,7.16
2022-11-25T00:02:59.876Z,7.14
2022-11-25T00:05:26.805Z,7.14
2022-11-25T00:07:53.283Z,7.11
2022-11-25T00:10:19.804Z,7.10
2022-11-25T00:12:46.229Z,7.09
2022-11-25T00:15:12.575Z,7.08
2022-11-25T00:17:39.186Z,7.06
2022-11-25T00:20:06.145Z,7.04
2022-11-25T00:22:32.662Z,7.02
2022-11-25T00:24:59.214Z,7.00
2022-11-25T00:27:25.554Z,6.98
2022-11-25T00:29:53.242Z,6.99
2022-11-25T00:32:19.769Z,6.98
2022-11-25T00:34:46.175Z,6.97
2022-11-25T00:37:12.637Z,6.97
2022-11-25T00:39:38.967Z,6.95
2022-11-25T00:42:24.002Z,6.96
2022-11-25T00:44:50.430Z,6.96
2022-11-25T00:47:20.291Z,6.98
2022-11-25T00:49:48.738Z,6.97
2022-11-25T00:52:17.344Z,6.99
2022-11-25T00:54:47.604Z,7.02
2022-11-25T00:57:15.223Z,7.05
2022-11-25T00:59:41.631Z,7.08
2022-11-25T01:02:08.253Z,7.08
2022-11-25T01:04:35.201Z,7.06
2022-11-25T01:07:02.174Z,7.07
2022-11-25T01:09:29.050Z,7.07
2022-11-25T01:11:55.422Z,7.07
2022-11-25T01:14:23.076Z,7.08
2022-11-25T01:16:51.410Z,7.09
2022-11-25T01:19:19.140Z,7.06
2022-11-25T01:21:46.911Z,7.05
2022-11-25T01:24:15.365Z,7.05
2022-11-25T01:26:42.655Z,7.08
2022-11-25T01:29:15.120Z,7.09
2022-11-25T01:31:42.568Z,7.08
2022-11-25T01:34:21.186Z,7.06
2022-11-25T01:36:48.148Z,7.04
2022-11-25T01:39:20.420Z,7.03
2022-11-25T01:41:47.871Z,7.02
2022-11-25T01:44:25.417Z,7.01
2022-11-25T01:47:16.993Z,7.01
2022-11-25T01:49:53.897Z,7.01
2022-11-25T01:52:28.873Z,6.99
2022-11-25T01:55:08.975Z,6.97
2022-11-25T01:57:59.350Z,6.95
2022-11-25T02:00:25.796Z,6.95
2022-11-25T02:02:54.878Z,6.95
2022-11-25T02:05:33.646Z,6.91
2022-11-25T02:08:00.875Z,6.90
2022-11-25T02:10:30.557Z,6.92
2022-11-25T02:12:59.258Z,6.91
2022-11-25T02:15:26.596Z,6.92
2022-11-25T02:17:53.218Z,6.90
2022-11-25T02:20:23.830Z,6.91
2022-11-25T02:23:16.010Z,6.91
2022-11-25T02:25:45.503Z,6.90
2022-11-25T02:28:17.174Z,6.91
2022-11-25T02:30:44.539Z,6.91
2022-11-25T02:33:11.857Z,6.91
2022-11-25T02:35:43.138Z,6.92
2022-11-25T02:38:15.305Z,6.94
2022-11-25T02:40:47.603Z,6.96
2022-11-25T02:43:14.762Z,6.96
2022-11-25T02:46:00.148Z,6.93
2022-11-25T02:48:52.896Z,6.95
2022-11-25T02:51:17.244Z,6.95
2022-11-25T02:53:44.083Z,6.94
2022-11-25T02:56:12.724Z,6.93
2022-11-25T02:58:39.799Z,6.95
2022-11-25T03:01:08.315Z,6.96
2022-11-25T03:03:35.874Z,6.97
2022-11-25T03:06:02.770Z,6.96
2022-11-25T03:08:29.214Z,6.98
2022-11-25T03:10:55.773Z,7.00
2022-11-25T03:13:22.311Z,7.00
2022-11-25T03:15:48.682Z,7.00
2022-11-25T03:18:15.159Z,7.01
2022-11-25T03:20:41.917Z,7.03
2022-11-25T03:23:08.376Z,7.05
2022-11-25T03:25:35.921Z,7.07
2022-11-25T03:28:03.551Z,7.10
2022-11-25T03:30:30.446Z,7.11
2022-11-25T03:32:59.264Z,7.12
2022-11-25T03:35:26.897Z,7.12
2022-11-25T03:37:53.405Z,7.12
2022-11-25T03:40:19.893Z,7.13
2022-11-25T03:42:46.473Z,7.13
2022-11-25T03:45:14.780Z,7.14
2022-11-25T03:47:43.318Z,7.11
2022-11-25T03:50:12.541Z,7.12
2022-11-25T03:52:39.526Z,7.13
2022-11-25T03:55:08.389Z,7.13
2022-11-25T03:57:36.157Z,7.13
2022-11-25T04:00:04.417Z,7.13
2022-11-25T04:02:44.442Z,7.11
2022-11-25T04:05:12.499Z,7.13
2022-11-25T04:07:39.727Z,7.16
2022-11-25T04:10:08.391Z,7.17
2022-11-25T04:12:47.459Z,7.16
2022-11-25T04:15:18.623Z,7.16
2022-11-25T04:17:49.708Z,7.16
2022-11-25T04:20:16.267Z,7.17
2022-11-25T04:22:46.262Z,7.17
2022-11-25T04:25:12.791Z,7.16
2022-11-25T04:27:39.334Z,7.11
2022-11-25T04:30:07.009Z,7.13
2022-11-25T04:32:38.149Z,7.14
2022-11-25T04:35:06.286Z,7.14
2022-11-25T04:37:33.250Z,7.14
2022-11-25T04:39:59.727Z,7.15
2022-11-25T04:42:32.890Z,7.15
2022-11-25T04:47:52.990Z,7.15
2022-11-25T04:50:22.323Z,7.13
2022-11-25T04:52:55.590Z,7.12
2022-11-25T04:55:23.005Z,7.14
2022-11-25T04:57:50.197Z,7.16
2022-11-25T05:00:17.042Z,7.17
2022-11-25T05:02:43.615Z,7.18
2022-11-25T05:05:18.272Z,7.17
2022-11-25T05:07:45.219Z,7.12
2022-11-25T05:10:12.677Z,7.13
2022-11-25T05:12:43.812Z,7.16
2022-11-25T05:15:15.414Z,7.19
2022-11-25T05:17:44.740Z,7.21
2022-11-25T05:20:11.607Z,7.22
2022-11-25T05:22:38.403Z,7.24
2022-11-25T05:25:07.054Z,7.24
2022-11-25T05:27:38.425Z,7.24
2022-11-25T05:30:08.930Z,7.24
2022-11-25T05:32:35.390Z,7.25
2022-11-25T05:35:07.013Z,7.27
2022-11-25T05:37:34.103Z,7.28
2022-11-25T05:40:04.698Z,7.30
2022-11-25T05:42:43.453Z,7.30
2022-11-25T05:45:11.176Z,7.32
2022-11-25T05:47:38.779Z,7.35
2022-11-25T05:50:07.013Z,7.38
2022-11-25T05:52:33.994Z,7.41
2022-11-25T05:55:01.563Z,7.45
2022-11-25T05:57:29.197Z,7.48
2022-11-25T06:00:00.599Z,7.49
2022-11-25T06:02:43.753Z,7.51
2022-11-25T06:05:13.150Z,7.51
2022-11-25T06:07:39.809Z,7.53
2022-11-25T06:10:07.311Z,7.54
2022-11-25T06:12:35.994Z,7.55
2022-11-25T06:15:03.511Z,7.55
2022-11-25T06:17:30.525Z,7.54
2022-11-25T06:20:09.425Z,7.52
2022-11-25T06:22:35.870Z,7.51
2022-11-25T06:25:04.120Z,7.51
2022-11-25T06:27:56.834Z,7.50
2022-11-25T06:30:20.582Z,7.50
2022-11-25T06:33:00.001Z,7.50
2022-11-25T06:35:26.778Z,7.48
2022-11-25T06:37:59.235Z,7.48
2022-11-25T06:40:25.843Z,7.45
2022-11-25T06:42:52.228Z,7.45
2022-11-25T06:45:20.548Z,7.44
2022-11-25T06:47:46.995Z,7.45
2022-11-25T06:50:13.343Z,7.46
2022-11-25T06:52:39.849Z,7.47
2022-11-25T06:55:06.495Z,7.48
2022-11-25T06:57:32.859Z,7.49
2022-11-25T06:59:59.287Z,7.49
2022-11-25T07:02:25.825Z,7.49
2022-11-25T07:04:52.243Z,7.50
2022-11-25T07:07:18.631Z,7.51
2022-11-25T07:09:45.198Z,7.53
2022-11-25T07:12:12.337Z,7.52
2022-11-25T07:14:39.048Z,7.54
2022-11-25T07:17:11.600Z,7.57
2022-11-25T07:19:38.505Z,7.62
2022-11-25T07:22:04.953Z,7.64
2022-11-25T07:24:31.384Z,7.67
2022-11-25T07:26:57.836Z,7.72
2022-11-25T07:32:11.143Z,7.74
2022-11-25T07:34:37.822Z,7.71
2022-11-25T07:37:04.254Z,7.70
2022-11-25T07:39:30.869Z,7.75
2022-11-25T07:41:57.414Z,7.77
2022-11-25T07:44:23.802Z,7.75
2022-11-25T07:47:00.753Z,7.78
2022-11-25T07:49:28.434Z,7.84
2022-11-25T07:51:57.547Z,7.87
2022-11-25T07:54:24.331Z,7.87
2022-11-25T07:56:51.591Z,7.91
2022-11-25T07:59:21.182Z,7.96
2022-11-25T08:01:55.512Z,7.98
2022-11-25T08:04:23.139Z,7.95
2022-11-25T08:06:51.902Z,7.98
2022-11-25T08:09:21.638Z,8.03
2022-11-25T08:11:49.202Z,8.06
2022-11-25T08:14:16.459Z,8.10
2022-11-25T08:16:43.222Z,8.09
2022-11-25T08:19:13.627Z,8.11
2022-11-25T08:21:40.294Z,8.14
2022-11-25T08:24:06.873Z,8.18
2022-11-25T08:26:39.597Z,8.23
2022-11-25T08:29:07.191Z,8.26
2022-11-25T08:31:36.750Z,8.28
2022-11-25T08:34:04.961Z,8.31
2022-11-25T08:36:32.117Z,8.34
2022-11-25T08:39:00.031Z,8.35
2022-11-25T08:41:32.528Z,8.37
2022-11-25T08:44:00.951Z,8.39
2022-11-25T08:46:30.045Z,8.41
2022-11-25T08:48:56.832Z,8.43
2022-11-25T08:51:26.861Z,8.47
2022-11-25T08:53:53.830Z,8.50
2022-11-25T08:56:25.993Z,8.52
2022-11-25T08:58:54.232Z,8.52
2022-11-25T09:01:22.359Z,8.54
2022-11-25T09:03:51.674Z,8.58
2022-11-25T09:06:18.799Z,8.57
2022-11-25T09:08:46.120Z,8.56
2022-11-25T09:11:13.491Z,8.49
2022-11-25T09:13:40.091Z,8.52
2022-11-25T09:16:07.392Z,8.56
2022-11-25T09:18:35.277Z,8.59
2022-11-25T09:21:09.702Z,8.61
2022-11-25T09:23:38.407Z,8.61
2022-11-25T09:26:06.346Z,8.65
2022-11-25T09:28:32.994Z,8.69
2022-11-25T09:30:59.497Z,8.69
2022-11-25T09:33:25.898Z,8.65
2022-11-25T09:35:52.487Z,8.65
2022-11-25T09:38:18.848Z,8.58
2022-11-25T09:40:53.747Z,8.56
2022-11-25T09:44:03.503Z,8.54
2022-11-25T09:46:41.844Z,8.52
2022-11-25T09:49:45.599Z,8.52
2022-11-25T09:52:17.605Z,8.54
2022-11-25T09:55:06.764Z,8.55
2022-11-25T09:57:56.478Z,8.56
2022-11-25T10:00:33.534Z,8.55
2022-11-25T10:03:05.791Z,8.50
2022-11-25T10:05:41.746Z,8.49
2022-11-25T10:08:23.279Z,8.35
2022-11-25T10:11:02.973Z,8.31
2022-11-25T10:13:50.025Z,8.29
2022-11-25T10:16:27.635Z,8.33
2022-11-25T10:19:06.217Z,8.37
2022-11-25T10:21:32.558Z,8.39
2022-11-25T10:23:59.178Z,8.40
2022-11-25T10:26:31.941Z,8.42
2022-11-25T10:29:13.568Z,8.42
2022-11-25T10:31:42.428Z,8.47
2022-11-25T10:34:24.254Z,8.49
2022-11-25T10:36:52.925Z,8.52
2022-11-25T10:39:26.975Z,8.44
2022-11-25T10:42:04.667Z,8.42
2022-11-25T10:44:39.835Z,8.51
2022-11-25T10:47:32.023Z,8.61
2022-11-25T10:50:26.457Z,8.68
2022-11-25T10:53:21.526Z,8.70
2022-11-25T10:56:12.390Z,8.75
2022-11-25T10:58:42.305Z,8.78
2022-11-25T11:01:23.172Z,8.81
2022-11-25T11:04:05.724Z,8.81
2022-11-25T11:06:36.374Z,8.78
2022-11-25T11:09:03.762Z,8.77
2022-11-25T11:11:30.714Z,8.79
2022-11-25T11:14:20.318Z,8.80
2022-11-25T11:16:57.202Z,8.76
2022-11-25T11:19:27.123Z,8.73
2022-11-25T11:21:56.400Z,8.72
2022-11-25T11:24:34.313Z,8.73
2022-11-25T11:27:05.193Z,8.76
2022-11-25T11:29:32.101Z,8.79
2022-11-25T11:32:01.605Z,8.81
2022-11-25T11:34:55.386Z,8.84
2022-11-25T11:37:38.703Z,8.88
2022-11-25T11:40:17.363Z,8.91
2022-11-25T11:42:50.405Z,8.94
2022-11-25T11:45:48.223Z,8.95
2022-11-25T11:48:29.414Z,8.98
2022-11-25T11:51:14.351Z,8.94
2022-11-25T11:53:51.154Z,8.93
2022-11-25T11:56:39.345Z,8.97
2022-11-25T11:59:19.344Z,8.92
2022-11-25T12:02:04.433Z,8.88
2022-11-25T12:04:41.817Z,8.88
2022-11-25T12:07:31.289Z,8.93
2022-11-25T12:10:06.309Z,8.92
2022-11-25T12:12:38.604Z,8.85
2022-11-25T12:15:16.843Z,8.77
2022-11-25T12:17:54.489Z,8.79
2022-11-25T12:20:38.622Z,8.84
2022-11-25T12:23:24.976Z,8.88
2022-11-25T12:25:57.604Z,8.92
2022-11-25T12:28:39.213Z,8.94
2022-11-25T12:31:16.401Z,8.97
2022-11-25T12:34:07.638Z,9.00
2022-11-25T12:36:35.324Z,9.02
2022-11-25T12:39:24.221Z,9.05
2022-11-25T12:41:59.343Z,9.07
2022-11-25T12:44:31.150Z,9.12
2022-11-25T12:46:58.319Z,9.17
2022-11-25T12:49:30.125Z,9.24
2022-11-25T12:52:21.255Z,9.31
2022-11-25T12:55:04.360Z,9.32
2022-11-25T12:57:57.004Z,9.34
2022-11-25T13:01:00.207Z,9.29
2022-11-25T13:04:13.024Z,9.31
2022-11-25T13:07:21.274Z,9.31
2022-11-25T13:10:14.192Z,9.31
2022-11-25T13:12:57.841Z,9.30
2022-11-25T13:15:38.047Z,9.27
2022-11-25T13:18:14.233Z,9.28
2022-11-25T13:20:47.147Z,9.33
2022-11-25T13:23:16.752Z,9.34
2022-11-25T13:25:46.797Z,9.37
2022-11-25T13:28:32.864Z,9.39
2022-11-25T13:31:21.381Z,9.42
2022-11-25T13:33:47.843Z,9.41
2022-11-25T13:36:20.062Z,9.41
2022-11-25T13:38:49.803Z,9.41
2022-11-25T13:41:16.099Z,9.44
2022-11-25T13:44:01.784Z,9.47
2022-11-25T13:46:45.365Z,9.47
2022-11-25T13:49:37.523Z,9.51
2022-11-25T13:52:12.951Z,9.53
2022-11-25T13:54:45.969Z,9.54
2022-11-25T13:57:12.231Z,9.56
2022-11-25T14:00:01.021Z,9.58
2022-11-25T14:02:27.689Z,9.62
2022-11-25T14:05:06.682Z,9.62
2022-11-25T14:07:58.203Z,9.64
2022-11-25T14:10:41.473Z,9.66
2022-11-25T14:13:35.968Z,9.67
2022-11-25T14:16:43.511Z,9.68
2022-11-25T14:19:43.211Z,9.68
2022-11-25T14:22:09.708Z,9.70
2022-11-25T14:24:36.030Z,9.72
2022-11-25T14:27:04.465Z,9.72
2022-11-25T14:29:40.433Z,9.75
2022-11-25T14:32:22.687Z,9.77
2022-11-25T14:34:59.641Z,9.81
2022-11-25T14:37:42.458Z,9.83
2022-11-25T14:40:21.080Z,9.82
2022-11-25T14:42:51.975Z,9.83
2022-11-25T14:45:30.954Z,9.82
2022-11-25T14:47:57.553Z,9.81
2022-11-25T14:50:34.728Z,9.81
2022-11-25T14:53:06.561Z,9.80
2022-11-25T14:55:32.967Z,9.79
2022-11-25T14:57:59.602Z,9.80
2022-11-25T15:00:26.277Z,9.80
2022-11-25T15:03:01.359Z,9.80
2022-11-25T15:05:37.918Z,9.80
2022-11-25T15:08:13.138Z,9.79
2022-11-25T15:10:51.336Z,9.80
2022-11-25T15:13:32.662Z,9.80
2022-11-25T15:16:08.246Z,9.80
2022-11-25T15:18:35.586Z,9.81
2022-11-25T15:21:03.089Z,9.82
2022-11-25T15:23:34.512Z,9.83
2022-11-25T15:26:02.250Z,9.83
2022-11-25T15:28:36.476Z,9.83
2022-11-25T15:31:12.561Z,9.85
2022-11-25T15:33:40.343Z,9.86
2022-11-25T15:36:06.964Z,9.85
2022-11-25T15:38:37.265Z,9.87
2022-11-25T15:41:05.527Z,9.89
2022-11-25T15:43:44.571Z,9.88
2022-11-25T15:46:11.100Z,9.90
2022-11-25T15:48:47.211Z,9.90
2022-11-25T15:51:20.037Z,9.90
2022-11-25T15:53:53.306Z,9.91
2022-11-25T15:56:23.412Z,9.92
2022-11-25T15:58:50.009Z,9.92
2022-11-25T16:01:17.100Z,9.92
2022-11-25T16:03:44.927Z,9.91
2022-11-25T16:06:19.425Z,9.92
2022-11-25T16:09:00.836Z,9.93
2022-11-25T16:11:33.051Z,9.94
2022-11-25T16:14:30.739Z,9.93
2022-11-25T16:17:02.798Z,9.93
2022-11-25T16:19:38.500Z,9.94
2022-11-25T16:22:05.640Z,9.96
2022-11-25T16:24:48.787Z,9.96
2022-11-25T16:27:25.597Z,9.98
2022-11-25T16:29:57.808Z,9.99
2022-11-25T16:32:26.951Z,10.00
2022-11-25T16:34:56.708Z,10.01
2022-11-25T16:37:23.857Z,10.02
2022-11-25T16:39:50.197Z,10.02
2022-11-25T16:42:21.850Z,10.03
2022-11-25T16:44:50.878Z,10.04
2022-11-25T16:47:20.057Z,10.06
2022-11-25T16:49:46.928Z,10.06
2022-11-25T16:52:14.164Z,10.08
2022-11-25T16:54:41.811Z,10.09
2022-11-25T16:57:16.101Z,10.11
2022-11-25T16:59:44.529Z,10.12
2022-11-25T17:02:18.503Z,10.10
2022-11-25T17:04:46.166Z,10.10
2022-11-25T17:07:32.859Z,10.10
2022-11-25T17:09:59.834Z,10.11
2022-11-25T17:12:30.362Z,10.11
2022-11-25T17:14:59.698Z,10.12
2022-11-25T17:17:27.007Z,10.13
2022-11-25T17:19:53.747Z,10.13
2022-11-25T17:22:22.963Z,10.13
2022-11-25T17:24:49.350Z,10.14
2022-11-25T17:27:33.846Z,10.14
2022-11-25T17:30:03.953Z,10.17
2022-11-25T17:32:31.202Z,10.17
2022-11-25T17:34:57.606Z,10.18
2022-11-25T17:37:25.464Z,10.17
2022-11-25T17:39:53.412Z,10.17
2022-11-25T17:42:26.520Z,10.18
2022-11-25T17:44:54.357Z,10.17
2022-11-25T17:47:21.091Z,10.17
2022-11-25T17:49:48.199Z,10.17
2022-11-25T17:52:14.586Z,10.18
2022-11-25T17:54:41.752Z,10.18
2022-11-25T17:57:14.089Z,10.19
2022-11-25T17:59:40.981Z,10.19
2022-11-25T18:02:18.933Z,10.20
2022-11-25T18:04:45.728Z,10.20
2022-11-25T18:07:12.155Z,10.20
2022-11-25T18:09:38.651Z,10.19
2022-11-25T18:12:10.588Z,10.19
2022-11-25T18:14:37.982Z,10.20
2022-11-25T18:17:07.475Z,10.19
2022-11-25T18:19:34.653Z,10.21
2022-11-25T18:22:10.808Z,10.21
2022-11-25T18:24:37.549Z,10.22
2022-11-25T18:27:05.801Z,10.22
2022-11-25T18:29:32.492Z,10.21
2022-11-25T18:31:59.607Z,10.22
2022-11-25T18:34:26.745Z,10.22
2022-11-25T18:36:53.650Z,10.22
2022-11-25T18:39:20.467Z,10.20
2022-11-25T18:41:47.877Z,10.20
2022-11-25T18:44:37.821Z,10.19
2022-11-25T18:47:05.455Z,10.17
2022-11-25T18:49:31.862Z,10.17
2022-11-25T18:51:58.239Z,10.18
2022-11-25T18:54:24.634Z,10.19
2022-11-25T18:56:52.099Z,10.19
2022-11-25T18:59:26.767Z,10.19
2022-11-25T19:01:54.253Z,10.19
2022-11-25T19:04:20.658Z,10.20
2022-11-25T19:06:47.081Z,10.20
2022-11-25T19:09:13.547Z,10.19
2022-11-25T19:11:45.592Z,10.19
2022-11-25T19:14:23.603Z,10.21
2022-11-25T19:16:50.138Z,10.20
2022-11-25T19:19:16.898Z,10.22
2022-11-25T19:21:43.562Z,10.23
2022-11-25T19:24:13.158Z,10.23
2022-11-25T19:26:52.197Z,10.23
2022-11-25T19:29:42.304Z,10.23
2022-11-25T19:32:26.234Z,10.21
2022-11-25T19:35:03.348Z,10.22
2022-11-25T19:37:32.840Z,10.22
2022-11-25T19:39:59.187Z,10.24
2022-11-25T19:42:25.812Z,10.25
2022-11-25T19:44:52.902Z,10.25
2022-11-25T19:47:22.024Z,10.26
2022-11-25T19:49:50.961Z,10.25
2022-11-25T19:52:20.577Z,10.27
2022-11-25T19:54:47.543Z,10.30
2022-11-25T19:57:20.470Z,10.33
2022-11-25T19:59:47.671Z,10.34
2022-11-25T20:02:22.646Z,10.34
2022-11-25T20:04:52.430Z,10.36
2022-11-25T20:07:20.291Z,10.36
2022-11-25T20:09:47.527Z,10.36
2022-11-25T20:12:23.739Z,10.36
2022-11-25T20:14:50.766Z,10.37
2022-11-25T20:17:29.524Z,10.36
2022-11-25T20:19:59.972Z,10.34
2022-11-25T20:22:32.432Z,10.35
2022-11-25T20:25:02.258Z,10.39
2022-11-25T20:27:29.285Z,10.41
2022-11-25T20:29:55.855Z,10.41
2022-11-25T20:32:28.000Z,10.43
2022-11-25T20:34:58.272Z,10.43
2022-11-25T20:37:26.302Z,10.44
2022-11-25T20:39:55.901Z,10.44
2022-11-25T20:42:23.095Z,10.42
2022-11-25T20:44:52.121Z,10.43
2022-11-25T20:47:24.424Z,10.41
2022-11-25T20:49:50.781Z,10.41
2022-11-25T20:52:26.718Z,10.43
2022-11-25T20:54:53.070Z,10.46
2022-11-25T20:57:19.399Z,10.49
2022-11-25T20:59:46.086Z,10.49
2022-11-25T21:02:12.545Z,10.49
2022-11-25T21:04:39.287Z,10.51
2022-11-25T21:07:07.013Z,10.49
2022-11-25T21:09:35.699Z,10.50
2022-11-25T21:12:03.181Z,10.51
2022-11-25T21:14:30.055Z,10.53
2022-11-25T21:16:56.502Z,10.53
2022-11-25T21:19:22.967Z,10.54
2022-11-25T21:21:50.732Z,10.56
2022-11-25T21:24:28.776Z,10.57
2022-11-25T21:26:56.854Z,10.58
2022-11-25T21:29:23.339Z,10.58
2022-11-25T21:31:49.740Z,10.56
2022-11-25T21:34:16.206Z,10.55
2022-11-25T21:36:45.207Z,10.56
2022-11-25T21:39:26.778Z,10.56
2022-11-25T21:41:54.222Z,10.56
2022-11-25T21:44:32.798Z,10.54
2022-11-25T21:46:59.222Z,10.52
2022-11-25T21:49:26.482Z,10.51
2022-11-25T21:51:52.942Z,10.52
2022-11-25T21:54:19.427Z,10.52
2022-11-25T21:56:46.226Z,10.53
2022-11-25T21:59:18.659Z,10.52
2022-11-25T22:01:47.066Z,10.50
2022-11-25T22:04:19.502Z,10.50
2022-11-25T22:06:46.879Z,10.50
2022-11-25T22:09:14.085Z,10.49
2022-11-25T22:11:47.564Z,10.49
2022-11-25T22:14:27.707Z,10.47
2022-11-25T22:16:55.966Z,10.44
2022-11-25T22:19:25.932Z,10.38
2022-11-25T22:21:52.440Z,10.34
2022-11-25T22:24:19.987Z,10.28
2022-11-25T22:26:51.275Z,10.24
2022-11-25T22:29:22.552Z,10.20
2022-11-25T22:31:49.753Z,10.18
2022-11-25T22:34:21.893Z,10.14
2022-11-25T22:36:49.299Z,10.12
2022-11-25T22:39:21.330Z,10.09
2022-11-25T22:41:50.728Z,10.05
2022-11-25T22:44:45.768Z,10.01
2022-11-25T22:47:39.089Z,10.01
2022-11-25T22:50:16.805Z,9.96
2022-11-25T22:52:43.161Z,9.92
2022-11-25T22:55:27.783Z,9.89
2022-11-25T22:57:56.388Z,9.90
2022-11-25T23:00:28.782Z,9.90
2022-11-25T23:02:57.118Z,9.87
2022-11-25T23:05:33.302Z,9.83
2022-11-25T23:08:02.460Z,9.80
2022-11-25T23:10:30.879Z,9.78
2022-11-25T23:12:57.247Z,9.75
2022-11-25T23:15:24.652Z,9.72
2022-11-25T23:17:54.857Z,9.68
2022-11-25T23:20:26.738Z,9.64
2022-11-25T23:22:53.398Z,9.62
2022-11-25T23:25:21.667Z,9.59
2022-11-25T23:27:48.083Z,9.58
2022-11-25T23:30:20.405Z,9.57
2022-11-25T23:32:50.070Z,9.55
2022-11-25T23:35:18.801Z,9.52
2022-11-25T23:37:50.311Z,9.49
2022-11-25T23:40:21.340Z,9.47
2022-11-25T23:42:48.194Z,9.44
2022-11-25T23:45:17.103Z,9.42
2022-11-25T23:47:46.338Z,9.42
2022-11-25T23:50:26.734Z,9.40
2022-11-25T23:52:57.993Z,9.39
2022-11-25T23:55:28.782Z,9.37
2022-11-25T23:57:55.671Z,9.35
